createdAt,value
2017-09-22T00:01:56.279Z,12.40
2017-09-22T00:04:24.216Z,11.70
2017-09-22T00:06:51.872Z,13.38
2017-09-22T00:09:19.536Z,13.95
2017-09-22T00:11:47.169Z,12.95
2017-09-22T00:14:14.807Z,10.70
2017-09-22T00:16:42.731Z,10.77
2017-09-22T00:19:11.140Z,13.13
2017-09-22T00:21:38.843Z,13.30
2017-09-22T00:24:07.283Z,12.37
2017-09-22T00:26:34.911Z,11.23
2017-09-22T00:29:02.545Z,11.70
2017-09-22T00:31:30.210Z,12.82
2017-09-22T00:33:57.840Z,16.08
2017-09-22T00:36:25.472Z,14.40
2017-09-22T00:38:53.139Z,15.02
2017-09-22T00:41:20.767Z,14.60
2017-09-22T00:43:48.414Z,13.32
2017-09-22T00:46:16.079Z,12.27
2017-09-22T00:48:43.711Z,12.93
2017-09-22T00:51:11.340Z,13.30
2017-09-22T00:53:39.004Z,14.75
2017-09-22T00:56:06.634Z,12.73
2017-09-22T00:58:34.271Z,13.00
2017-09-22T01:01:02.704Z,12.05
2017-09-22T01:03:30.339Z,13.62
2017-09-22T01:05:57.972Z,13.02
2017-09-22T01:08:25.636Z,13.02
2017-09-22T01:10:53.269Z,15.30
2017-09-22T01:13:20.903Z,14.77
2017-09-22T01:15:48.563Z,13.02
2017-09-22T01:18:16.195Z,13.48
2017-09-22T01:20:43.820Z,13.52
2017-09-22T01:23:11.488Z,15.95
2017-09-22T01:25:39.119Z,15.05
2017-09-22T01:28:06.750Z,13.70
2017-09-22T01:30:35.185Z,13.60
2017-09-22T01:33:02.811Z,14.02
2017-09-22T01:35:30.450Z,13.88
2017-09-22T01:37:58.112Z,17.10
2017-09-22T01:40:25.752Z,15.27
2017-09-22T01:42:53.387Z,16.42
2017-09-22T01:45:21.052Z,17.35
2017-09-22T01:47:48.691Z,16.25
2017-09-22T01:50:16.331Z,16.37
2017-09-22T01:52:43.993Z,15.70
2017-09-22T01:55:11.627Z,13.80
2017-09-22T01:57:39.259Z,15.00
2017-09-22T02:00:06.929Z,12.73
2017-09-22T02:02:34.568Z,15.25
2017-09-22T02:05:02.203Z,13.05
2017-09-22T02:07:29.869Z,12.75
2017-09-22T02:09:57.508Z,14.43
2017-09-22T02:12:25.139Z,14.95
2017-09-22T02:14:52.799Z,12.70
2017-09-22T02:17:20.433Z,14.15
2017-09-22T02:19:48.060Z,14.30
2017-09-22T02:22:15.718Z,11.45
2017-09-22T02:24:43.346Z,11.20
2017-09-22T02:27:10.971Z,12.48
2017-09-22T02:29:39.396Z,14.60
2017-09-22T02:32:07.040Z,13.40
2017-09-22T02:34:34.674Z,13.77
2017-09-22T02:37:02.340Z,14.63
2017-09-22T02:39:29.975Z,13.68
2017-09-22T02:41:57.615Z,12.68
2017-09-22T02:44:25.965Z,10.95
2017-09-22T02:46:53.592Z,12.63
2017-09-22T02:49:21.232Z,13.70
2017-09-22T02:51:49.660Z,11.70
2017-09-22T02:54:17.297Z,11.75
2017-09-22T02:56:44.927Z,15.00
2017-09-22T02:59:12.587Z,12.75
2017-09-22T03:01:40.223Z,12.15
2017-09-22T03:04:07.856Z,13.62
2017-09-22T03:06:35.515Z,14.77
2017-09-22T03:09:03.148Z,13.80
2017-09-22T03:11:30.784Z,16.33
2017-09-22T03:13:58.444Z,17.85
2017-09-22T03:16:26.075Z,17.12
2017-09-22T03:18:53.712Z,18.25
2017-09-22T03:21:21.415Z,19.77
2017-09-22T03:23:49.055Z,16.50
2017-09-22T03:26:16.688Z,16.33
2017-09-22T03:28:44.479Z,17.77
2017-09-22T03:31:12.879Z,16.17
2017-09-22T03:33:40.511Z,15.35
2017-09-22T03:36:08.935Z,19.10
2017-09-22T03:38:36.565Z,18.87
2017-09-22T03:41:04.199Z,18.37
2017-09-22T03:43:31.858Z,17.65
2017-09-22T03:45:59.498Z,18.02
2017-09-22T03:48:27.140Z,17.42
2017-09-22T03:50:54.802Z,14.10
2017-09-22T03:53:22.528Z,18.12
2017-09-22T03:55:50.236Z,21.02
2017-09-22T03:58:18.659Z,19.30
2017-09-22T04:00:46.296Z,19.45
2017-09-22T04:03:13.935Z,16.37
2017-09-22T04:05:41.599Z,16.70
2017-09-22T04:08:09.247Z,19.73
2017-09-22T04:10:36.891Z,18.25
2017-09-22T04:13:04.564Z,18.92
2017-09-22T04:15:32.199Z,19.55
2017-09-22T04:17:59.845Z,19.15
2017-09-22T04:20:27.508Z,18.55
2017-09-22T04:22:55.140Z,16.20
2017-09-22T04:25:22.785Z,15.82
2017-09-22T04:27:50.453Z,18.40
2017-09-22T04:30:18.891Z,16.98
2017-09-22T04:32:46.519Z,19.60
2017-09-22T04:35:14.188Z,16.67
2017-09-22T04:37:41.823Z,16.40
2017-09-22T04:40:09.456Z,21.40
2017-09-22T04:42:37.197Z,17.70
2017-09-22T04:45:04.831Z,20.58
2017-09-22T04:47:32.468Z,17.75
2017-09-22T04:50:01.183Z,16.67
2017-09-22T04:52:29.628Z,16.65
2017-09-22T04:54:57.266Z,14.65
2017-09-22T04:57:24.931Z,18.17
2017-09-22T04:59:52.572Z,20.42
2017-09-22T05:02:20.209Z,19.52
2017-09-22T05:04:47.876Z,20.85
2017-09-22T05:07:15.509Z,19.30
2017-09-22T05:09:43.147Z,19.17
2017-09-22T05:12:10.808Z,24.50
2017-09-22T05:14:38.439Z,24.05
2017-09-22T05:17:06.072Z,26.00
2017-09-22T05:19:34.505Z,22.60
2017-09-22T05:22:02.140Z,20.50
2017-09-22T05:24:29.771Z,22.87
2017-09-22T05:26:57.435Z,25.98
2017-09-22T05:29:25.083Z,22.20
2017-09-22T05:31:52.721Z,22.30
2017-09-22T05:34:20.386Z,25.12
2017-09-22T05:36:48.021Z,25.75
2017-09-22T05:39:15.656Z,19.95
2017-09-22T05:41:43.329Z,21.92
2017-09-22T05:44:10.967Z,20.20
2017-09-22T05:46:38.603Z,21.58
2017-09-22T05:49:06.308Z,23.55
2017-09-22T05:51:33.965Z,21.80
2017-09-22T05:54:01.601Z,19.90
2017-09-22T05:56:29.272Z,22.55
2017-09-22T05:58:57.010Z,21.83
2017-09-22T06:01:24.643Z,22.80
2017-09-22T06:03:52.317Z,22.92
2017-09-22T06:06:20.136Z,19.67
2017-09-22T06:08:47.828Z,17.92
2017-09-22T06:11:15.488Z,18.40
2017-09-22T06:13:44.201Z,18.58
2017-09-22T06:16:11.975Z,20.45
2017-09-22T06:18:39.773Z,20.33
2017-09-22T06:21:07.412Z,19.98
2017-09-22T06:23:35.049Z,18.17
2017-09-22T06:26:02.711Z,20.00
2017-09-22T06:28:30.505Z,16.17
2017-09-22T06:30:58.145Z,16.02
2017-09-22T06:33:25.807Z,14.82
2017-09-22T06:35:53.453Z,16.05
2017-09-22T06:38:21.091Z,17.30
2017-09-22T06:40:48.764Z,15.20
2017-09-22T06:43:16.398Z,18.27
2017-09-22T06:45:44.040Z,21.40
2017-09-22T06:48:11.705Z,22.35
2017-09-22T06:50:39.351Z,22.08
2017-09-22T06:53:06.989Z,19.12
2017-09-22T06:55:34.660Z,20.80
2017-09-22T06:58:02.318Z,19.92
2017-09-22T07:00:29.960Z,29.48
2017-09-22T07:02:57.624Z,32.97
2017-09-22T07:05:26.028Z,29.25
2017-09-22T07:07:53.669Z,24.83
2017-09-22T07:10:21.340Z,30.37
2017-09-22T07:12:48.975Z,35.88
2017-09-22T07:15:16.611Z,39.42
2017-09-22T07:17:44.267Z,36.33
2017-09-22T07:20:11.899Z,26.70
2017-09-22T07:22:39.540Z,29.52
2017-09-22T07:25:07.211Z,25.15
2017-09-22T07:27:34.847Z,27.05
2017-09-22T07:30:02.485Z,25.20
2017-09-22T07:32:30.147Z,24.80
2017-09-22T07:34:57.792Z,38.65
2017-09-22T07:37:25.442Z,38.45
2017-09-22T07:39:53.095Z,36.72
2017-09-22T07:42:20.742Z,36.03
2017-09-22T07:44:48.381Z,38.75
2017-09-22T07:47:16.057Z,35.17
2017-09-22T07:49:43.707Z,33.45
2017-09-22T07:52:11.344Z,35.83
2017-09-22T07:54:39.010Z,34.95
2017-09-22T07:57:06.676Z,30.15
2017-09-22T07:59:34.318Z,31.20
2017-09-22T08:02:02.756Z,30.00
2017-09-22T08:04:30.400Z,31.37
2017-09-22T08:06:58.057Z,30.73
2017-09-22T08:09:25.725Z,28.20
2017-09-22T08:11:54.131Z,30.05
2017-09-22T08:14:21.764Z,31.27
2017-09-22T08:16:49.436Z,31.05
2017-09-22T08:19:17.067Z,25.75
2017-09-22T08:21:44.695Z,30.90
2017-09-22T08:24:12.363Z,30.98
2017-09-22T08:26:40.003Z,31.75
2017-09-22T08:29:07.636Z,28.05
2017-09-22T08:31:35.306Z,29.73
2017-09-22T08:34:02.944Z,30.62
2017-09-22T08:36:30.588Z,28.48
2017-09-22T08:38:58.255Z,29.33
2017-09-22T08:41:25.892Z,32.03
2017-09-22T08:43:53.536Z,25.20
2017-09-22T08:46:21.189Z,28.50
2017-09-22T08:48:48.795Z,26.27
2017-09-22T08:51:16.407Z,23.90
2017-09-22T08:53:44.043Z,25.90
2017-09-22T08:56:11.657Z,25.03
2017-09-22T08:58:39.296Z,25.37
2017-09-22T09:01:07.700Z,25.00
2017-09-22T09:03:35.312Z,22.40
2017-09-22T09:06:02.931Z,19.10
2017-09-22T09:08:30.566Z,19.47
2017-09-22T09:10:58.177Z,13.63
2017-09-22T09:13:25.783Z,13.70
2017-09-22T09:15:53.426Z,18.10
2017-09-22T09:18:21.799Z,15.97
2017-09-22T09:20:50.168Z,15.10
2017-09-22T09:23:18.593Z,18.50
2017-09-22T09:25:46.228Z,16.77
2017-09-22T09:28:13.843Z,14.40
2017-09-22T09:30:41.492Z,16.63
2017-09-22T09:33:09.112Z,15.70
2017-09-22T09:35:37.487Z,15.67
2017-09-22T09:38:05.132Z,14.97
2017-09-22T09:40:32.742Z,12.70
2017-09-22T09:43:00.352Z,14.40
2017-09-22T09:45:28.790Z,14.45
2017-09-22T09:47:56.403Z,14.33
2017-09-22T09:50:24.012Z,14.60
2017-09-22T09:52:51.649Z,9.93
2017-09-22T09:55:19.290Z,12.20
2017-09-22T09:57:46.916Z,9.90
2017-09-22T10:00:14.573Z,8.80
2017-09-22T10:02:42.212Z,10.40
2017-09-22T10:05:10.605Z,10.43
2017-09-22T10:07:38.252Z,11.30
2017-09-22T10:10:05.865Z,9.80
2017-09-22T10:12:34.236Z,10.10
2017-09-22T10:15:01.878Z,9.70
2017-09-22T10:17:29.485Z,9.00
2017-09-22T10:19:57.096Z,9.40
2017-09-22T10:22:24.723Z,9.10
2017-09-22T10:24:52.324Z,8.10
2017-09-22T10:27:19.924Z,8.97
2017-09-22T10:29:47.636Z,7.50
2017-09-22T10:32:16.005Z,8.80
2017-09-22T10:34:44.371Z,9.30
2017-09-22T10:37:13.283Z,12.07
2017-09-22T10:39:40.875Z,9.80
2017-09-22T10:42:08.479Z,11.40
2017-09-22T10:44:36.131Z,11.20
2017-09-22T10:47:03.752Z,12.50
2017-09-22T10:49:31.387Z,11.35
2017-09-22T10:51:59.892Z,12.27
2017-09-22T10:54:27.495Z,10.40
2017-09-22T10:56:55.871Z,12.27
2017-09-22T10:59:23.507Z,12.90
2017-09-22T11:01:51.880Z,12.93
2017-09-22T11:04:19.492Z,11.70
2017-09-22T11:06:47.136Z,12.33
2017-09-22T11:09:14.738Z,11.77
2017-09-22T11:11:42.340Z,12.67
2017-09-22T11:14:10.753Z,9.47
2017-09-22T11:16:38.397Z,10.47
2017-09-22T11:19:06.032Z,10.00
2017-09-22T11:21:33.748Z,12.82
2017-09-22T11:24:02.121Z,10.37
2017-09-22T11:26:29.752Z,8.95
2017-09-22T11:28:57.379Z,9.47
2017-09-22T11:31:24.507Z,12.10
2017-09-22T11:33:51.620Z,12.07
2017-09-22T11:36:19.287Z,11.68
2017-09-22T11:38:46.913Z,12.73
2017-09-22T11:41:14.525Z,11.97
2017-09-22T11:43:42.192Z,10.75
2017-09-22T11:46:09.808Z,12.03
2017-09-22T11:48:38.180Z,10.50
2017-09-22T11:51:05.831Z,11.10
2017-09-22T11:53:33.448Z,9.63
2017-09-22T11:56:01.070Z,9.37
2017-09-22T11:58:28.723Z,9.80
2017-09-22T12:00:56.326Z,7.83
2017-09-22T12:03:23.947Z,9.73
2017-09-22T12:05:52.363Z,9.40
2017-09-22T12:08:19.959Z,8.63
2017-09-22T12:10:48.336Z,9.20
2017-09-22T12:13:15.972Z,10.73
2017-09-22T12:15:43.600Z,9.07
2017-09-22T12:18:11.207Z,9.20
2017-09-22T12:20:38.847Z,9.07
2017-09-22T12:23:06.469Z,9.80
2017-09-22T12:25:34.075Z,9.17
2017-09-22T12:28:01.712Z,7.20
2017-09-22T12:30:29.316Z,6.90
2017-09-22T12:32:56.925Z,8.70
2017-09-22T12:35:24.564Z,11.37
2017-09-22T12:37:52.199Z,11.07
2017-09-22T12:40:19.803Z,13.43
2017-09-22T12:42:47.443Z,12.77
2017-09-22T12:45:15.101Z,11.17
2017-09-22T12:47:42.711Z,9.93
2017-09-22T12:50:11.114Z,9.93
2017-09-22T12:52:38.750Z,10.80
2017-09-22T12:55:06.652Z,8.43
2017-09-22T12:57:34.313Z,10.80
2017-09-22T13:00:01.922Z,9.87
2017-09-22T13:02:33.393Z,10.97
2017-09-22T13:05:01.027Z,10.63
2017-09-22T13:07:29.884Z,11.33
2017-09-22T13:09:57.510Z,10.23
2017-09-22T13:12:26.016Z,9.67
2017-09-22T13:14:53.656Z,12.90
2017-09-22T13:17:21.282Z,11.37
2017-09-22T13:19:48.928Z,9.53
2017-09-22T13:22:16.531Z,10.00
2017-09-22T13:24:44.903Z,10.83
2017-09-22T13:27:13.211Z,8.63
2017-09-22T13:29:40.968Z,8.47
2017-09-22T13:32:09.020Z,9.90
2017-09-22T13:34:36.664Z,7.60
2017-09-22T13:37:04.266Z,7.50
2017-09-22T13:39:32.443Z,7.67
2017-09-22T13:42:00.119Z,9.43
2017-09-22T13:44:27.736Z,7.40
2017-09-22T13:46:55.341Z,10.83
2017-09-22T13:49:23.002Z,10.75
2017-09-22T13:51:50.637Z,8.90
2017-09-22T13:54:18.238Z,9.00
2017-09-22T13:56:45.900Z,8.60
2017-09-22T13:59:13.511Z,12.23
2017-09-22T14:01:41.119Z,11.50
2017-09-22T14:04:09.526Z,9.33
2017-09-22T14:06:37.711Z,11.27
2017-09-22T14:09:05.343Z,9.10
2017-09-22T14:11:33.000Z,10.20
2017-09-22T14:14:00.633Z,10.38
2017-09-22T14:16:28.245Z,8.50
2017-09-22T14:18:57.453Z,8.63
2017-09-22T14:21:25.059Z,9.90
2017-09-22T14:23:53.420Z,10.30
2017-09-22T14:26:21.824Z,10.30
2017-09-22T14:28:49.432Z,10.60
2017-09-22T14:31:17.080Z,9.82
2017-09-22T14:33:45.488Z,9.73
2017-09-22T14:36:13.094Z,9.97
2017-09-22T14:38:40.715Z,9.95
2017-09-22T14:41:09.135Z,9.18
2017-09-22T14:43:36.780Z,11.10
2017-09-22T14:46:04.404Z,10.55
2017-09-22T14:48:32.091Z,10.23
2017-09-22T14:50:59.739Z,10.95
2017-09-22T14:53:27.371Z,11.80
2017-09-22T14:55:55.037Z,12.63
2017-09-22T14:58:22.667Z,12.50
2017-09-22T15:00:50.300Z,10.77
2017-09-22T15:03:17.965Z,11.43
2017-09-22T15:05:45.597Z,10.23
2017-09-22T15:08:13.223Z,11.25
2017-09-22T15:10:40.878Z,7.18
2017-09-22T15:13:08.499Z,9.70
2017-09-22T15:15:36.135Z,9.07
2017-09-22T15:18:03.799Z,8.88
2017-09-22T15:20:31.427Z,8.48
2017-09-22T15:22:59.032Z,11.27
2017-09-22T15:25:26.688Z,9.93
2017-09-22T15:27:54.317Z,10.90
2017-09-22T15:30:21.924Z,9.63
2017-09-22T15:32:49.579Z,10.13
2017-09-22T15:35:17.953Z,9.03
2017-09-22T15:37:45.580Z,7.70
2017-09-22T15:40:13.975Z,8.80
2017-09-22T15:42:41.599Z,7.40
2017-09-22T15:45:09.976Z,6.93
2017-09-22T15:47:37.607Z,9.30
2017-09-22T15:50:05.968Z,8.57
2017-09-22T15:52:33.596Z,6.60
2017-09-22T15:55:02.019Z,7.43
2017-09-22T15:57:29.650Z,6.25
2017-09-22T15:59:57.275Z,6.43
2017-09-22T16:02:24.929Z,7.03
2017-09-22T16:04:52.556Z,7.10
2017-09-22T16:07:20.180Z,6.15
2017-09-22T16:09:48.602Z,5.97
2017-09-22T16:12:16.235Z,6.97
2017-09-22T16:14:43.865Z,5.50
2017-09-22T16:17:11.527Z,6.00
2017-09-22T16:19:39.225Z,5.85
2017-09-22T16:22:06.854Z,5.30
2017-09-22T16:24:34.576Z,5.20
2017-09-22T16:27:02.205Z,5.50
2017-09-22T16:29:29.917Z,5.97
2017-09-22T16:31:57.580Z,5.70
2017-09-22T16:34:25.980Z,6.28
2017-09-22T16:36:53.600Z,5.90
2017-09-22T16:39:21.263Z,5.95
2017-09-22T16:41:49.535Z,6.60
2017-09-22T16:44:17.160Z,5.72
2017-09-22T16:46:44.815Z,6.10
2017-09-22T16:49:12.497Z,6.97
2017-09-22T16:51:40.124Z,8.07
2017-09-22T16:54:07.775Z,9.48
2017-09-22T16:56:35.416Z,10.00
2017-09-22T16:59:03.048Z,8.73
2017-09-22T17:01:30.714Z,8.95
2017-09-22T17:03:58.339Z,8.85
2017-09-22T17:06:25.960Z,8.63
2017-09-22T17:08:54.388Z,8.95
2017-09-22T17:11:22.016Z,10.15
2017-09-22T17:13:49.640Z,8.93
2017-09-22T17:16:17.337Z,8.52
2017-09-22T17:18:44.971Z,8.48
2017-09-22T17:21:12.598Z,8.57
2017-09-22T17:23:40.902Z,7.80
2017-09-22T17:26:09.302Z,8.00
2017-09-22T17:28:36.926Z,6.55
2017-09-22T17:31:05.352Z,7.65
2017-09-22T17:33:32.964Z,7.85
2017-09-22T17:36:00.664Z,8.77
2017-09-22T17:38:28.329Z,7.93
2017-09-22T17:40:55.963Z,7.82
2017-09-22T17:43:23.587Z,8.25
2017-09-22T17:45:51.242Z,7.43
2017-09-22T17:48:18.871Z,10.00
2017-09-22T17:50:46.510Z,7.62
2017-09-22T17:53:14.917Z,8.02
2017-09-22T17:55:42.538Z,8.40
2017-09-22T17:58:10.269Z,10.50
2017-09-22T18:00:37.920Z,8.48
2017-09-22T18:03:06.348Z,8.10
2017-09-22T18:05:34.585Z,8.80
2017-09-22T18:08:02.271Z,10.38
2017-09-22T18:10:30.430Z,9.60
2017-09-22T18:12:59.549Z,10.20
2017-09-22T18:15:28.673Z,9.52
2017-09-22T18:17:58.437Z,9.40
2017-09-22T18:20:28.716Z,11.38
2017-09-22T18:22:57.233Z,9.00
2017-09-22T18:25:25.657Z,10.35
2017-09-22T18:27:53.312Z,9.80
2017-09-22T18:30:21.667Z,9.48
2017-09-22T18:32:49.332Z,9.30
2017-09-22T18:35:16.963Z,10.13
2017-09-22T18:37:44.585Z,10.13
2017-09-22T18:40:12.239Z,9.88
2017-09-22T18:42:40.297Z,9.77
2017-09-22T18:45:08.008Z,10.20
2017-09-22T18:47:37.372Z,11.88
2017-09-22T18:50:08.771Z,12.10
2017-09-22T18:52:37.863Z,10.60
2017-09-22T18:55:05.495Z,10.48
2017-09-22T18:57:33.130Z,10.80
2017-09-22T19:00:00.803Z,11.45
2017-09-22T19:02:28.432Z,12.07
2017-09-22T19:05:06.525Z,13.38
2017-09-22T19:07:34.796Z,11.25
2017-09-22T19:10:02.458Z,11.48
2017-09-22T19:12:30.082Z,10.63
2017-09-22T19:14:57.741Z,13.25
2017-09-22T19:17:25.412Z,11.05
2017-09-22T19:19:53.035Z,10.70
2017-09-22T19:22:20.673Z,13.35
2017-09-22T19:24:48.331Z,11.20
2017-09-22T19:27:15.959Z,11.10
2017-09-22T19:29:43.592Z,13.30
2017-09-22T19:32:11.520Z,15.82
2017-09-22T19:34:39.152Z,16.52
2017-09-22T19:37:07.553Z,17.12
2017-09-22T19:39:35.483Z,16.95
2017-09-22T19:42:03.124Z,16.92
2017-09-22T19:44:31.523Z,14.15
2017-09-22T19:46:59.195Z,14.10
2017-09-22T19:49:26.840Z,14.70
2017-09-22T19:51:54.495Z,12.20
2017-09-22T19:54:22.200Z,15.88
2017-09-22T19:56:49.836Z,16.62
2017-09-22T19:59:17.463Z,14.15
2017-09-22T20:01:45.887Z,13.02
2017-09-22T20:04:13.528Z,13.52
2017-09-22T20:06:41.161Z,14.68
2017-09-22T20:09:08.823Z,12.82
2017-09-22T20:11:36.457Z,16.70
2017-09-22T20:14:04.091Z,15.57
2017-09-22T20:16:31.773Z,16.70
2017-09-22T20:18:59.407Z,15.70
2017-09-22T20:21:27.045Z,12.60
2017-09-22T20:23:54.714Z,15.75
2017-09-22T20:26:22.347Z,16.55
2017-09-22T20:28:49.991Z,16.60
2017-09-22T20:31:17.661Z,17.10
2017-09-22T20:33:45.295Z,18.40
2017-09-22T20:36:12.935Z,16.95
2017-09-22T20:38:40.597Z,15.88
2017-09-22T20:41:08.236Z,17.42
2017-09-22T20:43:35.878Z,17.45
2017-09-22T20:46:03.657Z,14.90
2017-09-22T20:48:31.397Z,15.90
2017-09-22T20:50:59.159Z,17.92
2017-09-22T20:53:28.131Z,19.35
2017-09-22T20:55:55.767Z,18.30
2017-09-22T20:58:24.780Z,14.80
2017-09-22T21:00:52.446Z,17.58
2017-09-22T21:03:20.082Z,18.87
2017-09-22T21:05:47.711Z,18.67
2017-09-22T21:08:16.811Z,17.73
2017-09-22T21:10:44.446Z,14.77
2017-09-22T21:13:13.585Z,15.07
2017-09-22T21:15:43.080Z,16.55
2017-09-22T21:18:11.985Z,14.15
2017-09-22T21:20:43.200Z,13.90
2017-09-22T21:23:12.257Z,15.63
2017-09-22T21:25:40.341Z,14.13
2017-09-22T21:28:08.592Z,13.30
2017-09-22T21:30:36.256Z,14.05
2017-09-22T21:33:05.460Z,12.20
2017-09-22T21:35:33.573Z,12.45
2017-09-22T21:38:01.295Z,13.57
2017-09-22T21:40:28.923Z,12.48
2017-09-22T21:42:56.584Z,16.50
2017-09-22T21:45:24.243Z,12.27
2017-09-22T21:47:51.881Z,13.20
2017-09-22T21:50:19.507Z,15.20
2017-09-22T21:52:47.168Z,14.87
2017-09-22T21:55:14.796Z,13.50
2017-09-22T21:57:42.428Z,12.60
2017-09-22T22:00:10.850Z,14.55
2017-09-22T22:02:39.394Z,15.95
2017-09-22T22:05:12.875Z,17.25
2017-09-22T22:07:40.519Z,16.52
2017-09-22T22:10:08.149Z,16.15
2017-09-22T22:12:35.816Z,15.10
2017-09-22T22:15:03.444Z,17.00
2017-09-22T22:17:31.071Z,17.92
2017-09-22T22:19:59.495Z,17.70
2017-09-22T22:22:27.118Z,14.70
2017-09-22T22:24:54.747Z,16.48
2017-09-22T22:27:22.409Z,16.87
2017-09-22T22:29:50.032Z,18.50
2017-09-22T22:32:17.656Z,19.58
2017-09-22T22:34:46.083Z,20.35
2017-09-22T22:37:13.707Z,16.58
2017-09-22T22:39:42.331Z,16.17
2017-09-22T22:42:09.992Z,17.98
2017-09-22T22:44:38.382Z,17.65
2017-09-22T22:47:06.007Z,15.43
2017-09-22T22:49:34.431Z,15.73
2017-09-22T22:52:02.056Z,16.62
2017-09-22T22:54:29.679Z,13.27
2017-09-22T22:56:57.340Z,17.85
2017-09-22T22:59:24.963Z,17.85
2017-09-22T23:01:52.591Z,13.68
2017-09-22T23:04:21.020Z,14.85
2017-09-22T23:06:48.653Z,15.85
2017-09-22T23:09:16.290Z,15.55
2017-09-22T23:11:43.947Z,15.73
2017-09-22T23:14:11.571Z,15.82
2017-09-22T23:16:39.199Z,16.80
2017-09-22T23:19:06.872Z,14.23
2017-09-22T23:21:34.509Z,14.13
2017-09-22T23:24:02.146Z,18.30
2017-09-22T23:26:29.799Z,14.68
2017-09-22T23:28:57.432Z,18.20
2017-09-22T23:31:25.827Z,15.65
2017-09-22T23:33:53.496Z,16.00
2017-09-22T23:36:21.137Z,16.35
2017-09-22T23:38:48.772Z,18.35
2017-09-22T23:41:16.430Z,17.77
2017-09-22T23:43:44.071Z,20.42
2017-09-22T23:46:11.707Z,18.67
2017-09-22T23:48:39.371Z,17.17
2017-09-22T23:51:07.000Z,16.90
2017-09-22T23:53:34.657Z,17.52
2017-09-22T23:56:02.324Z,16.73
2017-09-22T23:58:29.956Z,14.93
